sensor_id;sensor_type;location;lat;lon;timestamp;pressure;altitude;pressure_sealevel;temperature;humidity
64298;BME280;50639;53.270;7.956;2023-02-19T00:01:53;101539.66;;;7.41;100.00
64298;BME280;50639;53.270;7.956;2023-02-19T00:04:27;101638.44;;;7.57;100.00
64298;BME280;50639;53.270;7.956;2023-02-19T00:06:57;101656.81;;;7.60;100.00
64298;BME280;50639;53.270;7.956;2023-02-19T00:09:30;101640.56;;;7.62;100.00
64298;BME280;50639;53.270;7.956;2023-02-19T00:12:18;101577.72;;;7.57;100.00
64298;BME280;50639;53.270;7.956;2023-02-19T00:15:26;101213.91;;;7.09;100.00
64298;BME280;50639;53.270;7.956;2023-02-19T00:18:11;101517.91;;;7.08;100.00
64298;BME280;50639;53.270;7.956;2023-02-19T00:20:39;101645.69;;;7.27;100.00
64298;BME280;50639;53.270;7.956;2023-02-19T00:23:13;101746.50;;;7.41;100.00
64298;BME280;50639;53.270;7.956;2023-02-19T00:26:00;101692.44;;;7.46;100.00
64298;BME280;50639;53.270;7.956;2023-02-19T00:29:00;101573.06;;;7.45;100.00
64298;BME280;50639;53.270;7.956;2023-02-19T00:38:08;101581.84;;;7.24;100.00
64298;BME280;50639;53.270;7.956;2023-02-19T00:40:37;101618.19;;;7.33;100.00
64298;BME280;50639;53.270;7.956;2023-02-19T00:43:06;101563.22;;;7.31;100.00
64298;BME280;50639;53.270;7.956;2023-02-19T00:45:34;101163.63;;;6.91;100.00
64298;BME280;50639;53.270;7.956;2023-02-19T00:48:07;101326.16;;;6.81;100.00
64298;BME280;50639;53.270;7.956;2023-02-19T00:50:59;101367.97;;;6.89;100.00
64298;BME280;50639;53.270;7.956;2023-02-19T00:53:29;101114.22;;;6.81;100.00
64298;BME280;50639;53.270;7.956;2023-02-19T00:56:00;100958.09;;;6.62;100.00
64298;BME280;50639;53.270;7.956;2023-02-19T00:58:45;101122.63;;;6.50;100.00
64298;BME280;50639;53.270;7.956;2023-02-19T01:01:16;101102.41;;;6.41;100.00
64298;BME280;50639;53.270;7.956;2023-02-19T01:03:51;101147.00;;;6.40;100.00
64298;BME280;50639;53.270;7.956;2023-02-19T01:06:35;101380.66;;;6.65;100.00
64298;BME280;50639;53.270;7.956;2023-02-19T01:09:12;101229.41;;;6.64;100.00
64298;BME280;50639;53.270;7.956;2023-02-19T01:11:47;101049.13;;;6.60;100.00
64298;BME280;50639;53.270;7.956;2023-02-19T01:14:22;101073.19;;;6.60;100.00
64298;BME280;50639;53.270;7.956;2023-02-19T01:17:11;101270.41;;;6.78;100.00
64298;BME280;50639;53.270;7.956;2023-02-19T01:19:39;101365.09;;;6.90;100.00
64298;BME280;50639;53.270;7.956;2023-02-19T01:22:17;101207.16;;;6.85;100.00
64298;BME280;50639;53.270;7.956;2023-02-19T01:24:56;101328.13;;;6.94;100.00
64298;BME280;50639;53.270;7.956;2023-02-19T01:27:32;101412.53;;;7.03;100.00
64298;BME280;50639;53.270;7.956;2023-02-19T01:30:11;101466.94;;;7.10;100.00
64298;BME280;50639;53.270;7.956;2023-02-19T01:32:41;101437.31;;;7.11;100.00
64298;BME280;50639;53.270;7.956;2023-02-19T01:35:19;101408.91;;;7.10;100.00
64298;BME280;50639;53.270;7.956;2023-02-19T01:38:00;101526.00;;;7.15;100.00
64298;BME280;50639;53.270;7.956;2023-02-19T01:40:54;101319.41;;;7.06;100.00
64298;BME280;50639;53.270;7.956;2023-02-19T01:43:27;101506.00;;;7.11;100.00
64298;BME280;50639;53.270;7.956;2023-02-19T01:45:54;101472.63;;;7.07;100.00
64298;BME280;50639;53.270;7.956;2023-02-19T01:51:10;101690.81;;;7.16;100.00
64298;BME280;50639;53.270;7.956;2023-02-19T01:57:32;101636.28;;;7.02;100.00
64298;BME280;50639;53.270;7.956;2023-02-19T02:00:16;101365.53;;;6.72;100.00
64298;BME280;50639;53.270;7.956;2023-02-19T02:05:55;101651.09;;;6.61;100.00
64298;BME280;50639;53.270;7.956;2023-02-19T02:08:46;101416.25;;;6.51;100.00
64298;BME280;50639;53.270;7.956;2023-02-19T02:11:57;101706.97;;;6.70;100.00
64298;BME280;50639;53.270;7.956;2023-02-19T02:15:00;101757.28;;;6.82;100.00
64298;BME280;50639;53.270;7.956;2023-02-19T02:22:08;101630.66;;;6.83;100.00
64298;BME280;50639;53.270;7.956;2023-02-19T02:31:55;101794.00;;;6.88;100.00
64298;BME280;50639;53.270;7.956;2023-02-19T02:37:54;101956.53;;;6.92;100.00
64298;BME280;50639;53.270;7.956;2023-02-19T02:41:00;101592.13;;;6.62;100.00
64298;BME280;50639;53.270;7.956;2023-02-19T02:43:30;101919.06;;;6.69;100.00
64298;BME280;50639;53.270;7.956;2023-02-19T02:46:21;101763.97;;;6.63;100.00
64298;BME280;50639;53.270;7.956;2023-02-19T02:56:31;102198.69;;;6.87;100.00
64298;BME280;50639;53.270;7.956;2023-02-19T02:59:22;101659.16;;;6.38;100.00
64298;BME280;50639;53.270;7.956;2023-02-19T03:02:10;102045.13;;;6.34;100.00
64298;BME280;50639;53.270;7.956;2023-02-19T03:09:16;102180.72;;;6.40;100.00
64298;BME280;50639;53.270;7.956;2023-02-19T03:15:50;102171.84;;;6.48;100.00
64298;BME280;50639;53.270;7.956;2023-02-19T03:18:38;102226.78;;;6.50;100.00
64298;BME280;50639;53.270;7.956;2023-02-19T03:21:36;102290.41;;;6.47;100.00
64298;BME280;50639;53.270;7.956;2023-02-19T03:24:09;102376.84;;;6.30;100.00
64298;BME280;50639;53.270;7.956;2023-02-19T03:27:03;102247.47;;;6.16;100.00
64298;BME280;50639;53.270;7.956;2023-02-19T03:29:39;102472.09;;;6.13;100.00
64298;BME280;50639;53.270;7.956;2023-02-19T03:32:15;102465.09;;;6.12;100.00
64298;BME280;50639;53.270;7.956;2023-02-19T03:35:08;102465.81;;;6.22;100.00
64298;BME280;50639;53.270;7.956;2023-02-19T03:38:47;102105.94;;;6.00;100.00
64298;BME280;50639;53.270;7.956;2023-02-19T03:41:08;102143.97;;;5.86;100.00
64298;BME280;50639;53.270;7.956;2023-02-19T03:44:05;101973.59;;;5.81;100.00
64298;BME280;50639;53.270;7.956;2023-02-19T03:46:55;102201.69;;;5.95;100.00
64298;BME280;50639;53.270;7.956;2023-02-19T03:50:02;101977.13;;;5.90;100.00
64298;BME280;50639;53.270;7.956;2023-02-19T03:53:18;102185.38;;;6.06;100.00
64298;BME280;50639;53.270;7.956;2023-02-19T04:01:43;101888.00;;;5.99;100.00
64298;BME280;50639;53.270;7.956;2023-02-19T04:05:20;101942.09;;;5.93;100.00
64298;BME280;50639;53.270;7.956;2023-02-19T04:07:58;101938.09;;;5.89;100.00
64298;BME280;50639;53.270;7.956;2023-02-19T04:10:48;101921.75;;;5.84;100.00
64298;BME280;50639;53.270;7.956;2023-02-19T04:14:12;101767.97;;;5.75;100.00
64298;BME280;50639;53.270;7.956;2023-02-19T04:16:50;101786.50;;;5.68;100.00
64298;BME280;50639;53.270;7.956;2023-02-19T04:22:39;101983.63;;;5.79;100.00
64298;BME280;50639;53.270;7.956;2023-02-19T04:33:53;101681.28;;;5.71;100.00
64298;BME280;50639;53.270;7.956;2023-02-19T04:36:54;101528.53;;;5.69;100.00
64298;BME280;50639;53.270;7.956;2023-02-19T04:39:46;101786.47;;;5.84;100.00
64298;BME280;50639;53.270;7.956;2023-02-19T04:42:17;101750.59;;;5.87;100.00
64298;BME280;50639;53.270;7.956;2023-02-19T04:48:02;101600.84;;;5.82;100.00
64298;BME280;50639;53.270;7.956;2023-02-19T04:58:39;101500.09;;;5.84;100.00
64298;BME280;50639;53.270;7.956;2023-02-19T05:01:51;101321.19;;;5.63;100.00
64298;BME280;50639;53.270;7.956;2023-02-19T05:12:39;101525.56;;;5.64;100.00
64298;BME280;50639;53.270;7.956;2023-02-19T05:15:10;101592.19;;;5.72;100.00
64298;BME280;50639;53.270;7.956;2023-02-19T05:18:09;101669.56;;;5.80;100.00
64298;BME280;50639;53.270;7.956;2023-02-19T05:21:14;101817.28;;;5.95;100.00
64298;BME280;50639;53.270;7.956;2023-02-19T05:24:16;101403.06;;;5.77;100.00
64298;BME280;50639;53.270;7.956;2023-02-19T05:27:06;101552.16;;;5.80;100.00
64298;BME280;50639;53.270;7.956;2023-02-19T05:30:07;101323.13;;;5.69;100.00
64298;BME280;50639;53.270;7.956;2023-02-19T05:34:02;101499.38;;;5.67;100.00
64298;BME280;50639;53.270;7.956;2023-02-19T05:43:38;101663.59;;;5.70;100.00
64298;BME280;50639;53.270;7.956;2023-02-19T05:46:04;101475.91;;;5.63;100.00
64298;BME280;50639;53.270;7.956;2023-02-19T05:48:30;101395.75;;;5.56;100.00
64298;BME280;50639;53.270;7.956;2023-02-19T05:51:08;101412.13;;;5.53;100.00
64298;BME280;50639;53.270;7.956;2023-02-19T05:53:33;101539.47;;;5.59;100.00
64298;BME280;50639;53.270;7.956;2023-02-19T05:55:59;101729.47;;;5.69;100.00
64298;BME280;50639;53.270;7.956;2023-02-19T05:58:25;101787.63;;;5.74;100.00
64298;BME280;50639;53.270;7.956;2023-02-19T06:00:50;101600.25;;;5.64;100.00
64298;BME280;50639;53.270;7.956;2023-02-19T06:03:16;101697.31;;;5.63;100.00
64298;BME280;50639;53.270;7.956;2023-02-19T06:05:42;101868.03;;;5.71;100.00
64298;BME280;50639;53.270;7.956;2023-02-19T06:08:11;101852.03;;;5.71;100.00
64298;BME280;50639;53.270;7.956;2023-02-19T06:10:37;101887.38;;;5.73;100.00
64298;BME280;50639;53.270;7.956;2023-02-19T06:13:06;101901.88;;;5.70;100.00
64298;BME280;50639;53.270;7.956;2023-02-19T06:15:31;101981.75;;;5.72;100.00
64298;BME280;50639;53.270;7.956;2023-02-19T06:17:57;101982.44;;;5.66;100.00
64298;BME280;50639;53.270;7.956;2023-02-19T06:20:22;102096.84;;;5.69;100.00
64298;BME280;50639;53.270;7.956;2023-02-19T06:22:51;102182.25;;;5.69;100.00
64298;BME280;50639;53.270;7.956;2023-02-19T06:25:17;102285.00;;;5.73;100.00
64298;BME280;50639;53.270;7.956;2023-02-19T06:27:43;102400.94;;;5.78;100.00
64298;BME280;50639;53.270;7.956;2023-02-19T06:30:09;102448.84;;;5.80;100.00
64298;BME280;50639;53.270;7.956;2023-02-19T06:32:34;102494.91;;;5.82;100.00
64298;BME280;50639;53.270;7.956;2023-02-19T06:35:00;102455.16;;;5.79;100.00
64298;BME280;50639;53.270;7.956;2023-02-19T06:37:25;102508.53;;;5.79;100.00
64298;BME280;50639;53.270;7.956;2023-02-19T06:39:51;102622.72;;;5.85;100.00
64298;BME280;50639;53.270;7.956;2023-02-19T06:42:16;102636.09;;;5.85;100.00
64298;BME280;50639;53.270;7.956;2023-02-19T06:44:42;102603.66;;;5.80;100.00
64298;BME280;50639;53.270;7.956;2023-02-19T06:47:07;102688.66;;;5.75;100.00
64298;BME280;50639;53.270;7.956;2023-02-19T06:49:33;102856.81;;;5.84;100.00
64298;BME280;50639;53.270;7.956;2023-02-19T06:51:58;102841.63;;;5.85;100.00
64298;BME280;50639;53.270;7.956;2023-02-19T06:54:25;102816.88;;;5.83;100.00
64298;BME280;50639;53.270;7.956;2023-02-19T06:56:51;102694.97;;;5.74;100.00
64298;BME280;50639;53.270;7.956;2023-02-19T06:59:16;102795.13;;;5.78;100.00
64298;BME280;50639;53.270;7.956;2023-02-19T07:01:43;102826.47;;;5.76;100.00
64298;BME280;50639;53.270;7.956;2023-02-19T07:04:09;103019.66;;;5.84;100.00
64298;BME280;50639;53.270;7.956;2023-02-19T07:06:34;102967.81;;;5.87;100.00
64298;BME280;50639;53.270;7.956;2023-02-19T07:09:00;103047.91;;;5.87;100.00
64298;BME280;50639;53.270;7.956;2023-02-19T07:11:29;102722.00;;;5.71;100.00
64298;BME280;50639;53.270;7.956;2023-02-19T07:13:57;102909.34;;;5.74;100.00
64298;BME280;50639;53.270;7.956;2023-02-19T07:16:24;103033.44;;;5.80;100.00
64298;BME280;50639;53.270;7.956;2023-02-19T07:18:50;102915.13;;;5.70;100.00
64298;BME280;50639;53.270;7.956;2023-02-19T07:21:16;103098.47;;;5.79;100.00
64298;BME280;50639;53.270;7.956;2023-02-19T07:23:42;102945.34;;;5.70;100.00
64298;BME280;50639;53.270;7.956;2023-02-19T07:26:13;103159.16;;;5.77;100.00
64298;BME280;50639;53.270;7.956;2023-02-19T07:28:40;103221.97;;;5.81;100.00
64298;BME280;50639;53.270;7.956;2023-02-19T07:31:05;103094.09;;;5.78;100.00
64298;BME280;50639;53.270;7.956;2023-02-19T07:33:31;103283.72;;;5.87;100.00
64298;BME280;50639;53.270;7.956;2023-02-19T07:35:56;103311.81;;;5.92;100.00
64298;BME280;50639;53.270;7.956;2023-02-19T07:38:24;103366.66;;;5.96;100.00
64298;BME280;50639;53.270;7.956;2023-02-19T07:40:53;103373.41;;;6.00;100.00
64298;BME280;50639;53.270;7.956;2023-02-19T07:43:19;103547.06;;;6.09;100.00
64298;BME280;50639;53.270;7.956;2023-02-19T07:45:45;103350.34;;;5.99;100.00
64298;BME280;50639;53.270;7.956;2023-02-19T07:48:11;103316.63;;;5.98;100.00
64298;BME280;50639;53.270;7.956;2023-02-19T07:50:37;103639.06;;;6.16;100.00
64298;BME280;50639;53.270;7.956;2023-02-19T07:53:02;103634.16;;;6.21;100.00
64298;BME280;50639;53.270;7.956;2023-02-19T07:55:28;103621.50;;;6.23;100.00
64298;BME280;50639;53.270;7.956;2023-02-19T07:57:53;103648.72;;;6.28;100.00
64298;BME280;50639;53.270;7.956;2023-02-19T08:00:19;103601.56;;;6.27;100.00
64298;BME280;50639;53.270;7.956;2023-02-19T08:02:47;103528.00;;;6.23;100.00
64298;BME280;50639;53.270;7.956;2023-02-19T08:05:26;103476.34;;;6.13;100.00
64298;BME280;50639;53.270;7.956;2023-02-19T08:07:52;103553.69;;;6.15;100.00
64298;BME280;50639;53.270;7.956;2023-02-19T08:10:18;103458.34;;;6.06;100.00
64298;BME280;50639;53.270;7.956;2023-02-19T08:13:02;103525.97;;;6.06;100.00
64298;BME280;50639;53.270;7.956;2023-02-19T08:15:45;103526.94;;;6.05;100.00
64298;BME280;50639;53.270;7.956;2023-02-19T08:18:11;103475.47;;;6.03;100.00
64298;BME280;50639;53.270;7.956;2023-02-19T08:20:38;103324.78;;;5.96;100.00
64298;BME280;50639;53.270;7.956;2023-02-19T08:23:04;103372.69;;;5.98;100.00
64298;BME280;50639;53.270;7.956;2023-02-19T08:25:30;103313.25;;;5.96;100.00
64298;BME280;50639;53.270;7.956;2023-02-19T08:27:55;103391.97;;;6.01;100.00
64298;BME280;50639;53.270;7.956;2023-02-19T08:30:21;103135.44;;;5.93;100.00
64298;BME280;50639;53.270;7.956;2023-02-19T08:32:47;103155.53;;;5.97;100.00
64298;BME280;50639;53.270;7.956;2023-02-19T08:35:12;103114.53;;;5.98;100.00
64298;BME280;50639;53.270;7.956;2023-02-19T08:37:38;103153.16;;;6.04;100.00
64298;BME280;50639;53.270;7.956;2023-02-19T08:40:04;102981.53;;;6.02;100.00
64298;BME280;50639;53.270;7.956;2023-02-19T08:42:29;103070.66;;;6.10;100.00
64298;BME280;50639;53.270;7.956;2023-02-19T08:44:55;102947.09;;;6.08;100.00
64298;BME280;50639;53.270;7.956;2023-02-19T08:47:20;102661.97;;;6.02;100.00
64298;BME280;50639;53.270;7.956;2023-02-19T08:49:46;102965.75;;;6.18;100.00
64298;BME280;50639;53.270;7.956;2023-02-19T08:52:11;102990.03;;;6.24;100.00
64298;BME280;50639;53.270;7.956;2023-02-19T08:54:36;102922.94;;;6.27;100.00
64298;BME280;50639;53.270;7.956;2023-02-19T08:57:02;103042.16;;;6.38;100.00
64298;BME280;50639;53.270;7.956;2023-02-19T08:59:30;102944.25;;;6.37;100.00
64298;BME280;50639;53.270;7.956;2023-02-19T09:01:57;102975.72;;;6.43;100.00
64298;BME280;50639;53.270;7.956;2023-02-19T09:04:22;102948.88;;;6.44;100.00
64298;BME280;50639;53.270;7.956;2023-02-19T09:06:48;102858.16;;;6.43;100.00
64298;BME280;50639;53.270;7.956;2023-02-19T09:09:13;103007.78;;;6.52;100.00
64298;BME280;50639;53.270;7.956;2023-02-19T09:11:38;102693.66;;;6.40;100.00
64298;BME280;50639;53.270;7.956;2023-02-19T09:14:04;102636.31;;;6.35;100.00
64298;BME280;50639;53.270;7.956;2023-02-19T09:16:32;102794.63;;;6.37;100.00
64298;BME280;50639;53.270;7.956;2023-02-19T09:18:58;102988.56;;;6.39;100.00
64298;BME280;50639;53.270;7.956;2023-02-19T09:21:24;103342.59;;;6.54;100.00
64298;BME280;50639;53.270;7.956;2023-02-19T09:23:49;103440.22;;;6.58;100.00
64298;BME280;50639;53.270;7.956;2023-02-19T09:26:14;103934.88;;;6.79;100.00
64298;BME280;50639;53.270;7.956;2023-02-19T09:28:40;104039.75;;;6.83;100.00
64298;BME280;50639;53.270;7.956;2023-02-19T09:31:07;104227.47;;;6.88;100.00
64298;BME280;50639;53.270;7.956;2023-02-19T09:33:34;104596.63;;;7.00;100.00
64298;BME280;50639;53.270;7.956;2023-02-19T09:36:00;105056.19;;;7.11;100.00
64298;BME280;50639;53.270;7.956;2023-02-19T09:38:26;105398.38;;;7.18;100.00
64298;BME280;50639;53.270;7.956;2023-02-19T09:40:52;105578.81;;;7.16;100.00
64298;BME280;50639;53.270;7.956;2023-02-19T09:43:19;106094.78;;;7.14;100.00
64298;BME280;50639;53.270;7.956;2023-02-19T09:45:47;106436.13;;;7.05;100.00
64298;BME280;50639;53.270;7.956;2023-02-19T09:48:13;107353.59;;;7.40;100.00
64298;BME280;50639;53.270;7.956;2023-02-19T09:50:41;107956.88;;;7.66;100.00
64298;BME280;50639;53.270;7.956;2023-02-19T09:53:24;108080.09;;;7.71;100.00
64298;BME280;50639;53.270;7.956;2023-02-19T09:55:52;107929.75;;;7.41;100.00
64298;BME280;50639;53.270;7.956;2023-02-19T09:58:24;107846.13;;;7.24;100.00
64298;BME280;50639;53.270;7.956;2023-02-19T10:00:52;108343.44;;;7.39;100.00
64298;BME280;50639;53.270;7.956;2023-02-19T10:03:26;108756.09;;;7.57;100.00
64298;BME280;50639;53.270;7.956;2023-02-19T10:06:02;108865.16;;;7.58;100.00
64298;BME280;50639;53.270;7.956;2023-02-19T10:08:34;109439.06;;;7.78;100.00
64298;BME280;50639;53.270;7.956;2023-02-19T10:11:01;109952.63;;;8.01;100.00
64298;BME280;50639;53.270;7.956;2023-02-19T10:13:37;109713.66;;;7.81;100.00
64298;BME280;50639;53.270;7.956;2023-02-19T10:16:06;110184.19;;;7.83;100.00
64298;BME280;50639;53.270;7.956;2023-02-19T10:18:38;110710.56;;;7.98;100.00
64298;BME280;50639;53.270;7.956;2023-02-19T10:21:06;110626.31;;;7.92;100.00
64298;BME280;50639;53.270;7.956;2023-02-19T10:23:32;111038.28;;;8.06;100.00
64298;BME280;50639;53.270;7.956;2023-02-19T10:25:59;111404.78;;;8.17;100.00
64298;BME280;50639;53.270;7.956;2023-02-19T10:28:28;111754.59;;;8.33;100.00
64298;BME280;50639;53.270;7.956;2023-02-19T10:30:56;111878.38;;;8.38;100.00
64298;BME280;50639;53.270;7.956;2023-02-19T10:33:23;112033.59;;;8.44;100.00
64298;BME280;50639;53.270;7.956;2023-02-19T10:38:19;111878.69;;;8.23;100.00
64298;BME280;50639;53.270;7.956;2023-02-19T10:40:55;112175.66;;;8.34;100.00
64298;BME280;50639;53.270;7.956;2023-02-19T10:43:25;112616.31;;;8.51;100.00
64298;BME280;50639;53.270;7.956;2023-02-19T10:46:00;113159.72;;;8.71;100.00
64298;BME280;50639;53.270;7.956;2023-02-19T10:48:29;112946.66;;;8.61;100.00
64298;BME280;50639;53.270;7.956;2023-02-19T10:51:01;112708.59;;;8.32;100.00
64298;BME280;50639;53.270;7.956;2023-02-19T10:58:38;112652.16;;;8.14;100.00
64298;BME280;50639;53.270;7.956;2023-02-19T11:01:18;113017.97;;;8.36;100.00
64298;BME280;50639;53.270;7.956;2023-02-19T11:04:30;113605.81;;;8.64;100.00
64298;BME280;50639;53.270;7.956;2023-02-19T11:06:30;113626.22;;;8.75;100.00
64298;BME280;50639;53.270;7.956;2023-02-19T11:08:58;113742.59;;;8.85;100.00
64298;BME280;50639;53.270;7.956;2023-02-19T11:11:36;113715.47;;;8.68;100.00
64298;BME280;50639;53.270;7.956;2023-02-19T11:14:19;114319.91;;;8.80;100.00
64298;BME280;50639;53.270;7.956;2023-02-19T11:16:58;114400.63;;;8.80;100.00
64298;BME280;50639;53.270;7.956;2023-02-19T11:21:56;115645.06;;;9.47;100.00
64298;BME280;50639;53.270;7.956;2023-02-19T11:24:32;114456.19;;;9.14;100.00
64298;BME280;50639;53.270;7.956;2023-02-19T11:27:04;114559.88;;;9.21;100.00
64298;BME280;50639;53.270;7.956;2023-02-19T11:29:31;113962.81;;;9.05;100.00
64298;BME280;50639;53.270;7.956;2023-02-19T11:32:22;112908.97;;;8.77;100.00
64298;BME280;50639;53.270;7.956;2023-02-19T11:34:49;112974.69;;;8.82;100.00
64298;BME280;50639;53.270;7.956;2023-02-19T11:37:19;112868.97;;;8.84;100.00
64298;BME280;50639;53.270;7.956;2023-02-19T11:39:49;112844.75;;;8.84;100.00
64298;BME280;50639;53.270;7.956;2023-02-19T11:48:08;112496.81;;;8.63;100.00
64298;BME280;50639;53.270;7.956;2023-02-19T11:53:34;112903.38;;;8.90;100.00
64298;BME280;50639;53.270;7.956;2023-02-19T11:56:20;113662.38;;;9.22;100.00
64298;BME280;50639;53.270;7.956;2023-02-19T11:59:04;114280.28;;;9.53;100.00
64298;BME280;50639;53.270;7.956;2023-02-19T12:05:08;114427.75;;;9.56;100.00
64298;BME280;50639;53.270;7.956;2023-02-19T12:08:39;114804.09;;;9.78;100.00
64298;BME280;50639;53.270;7.956;2023-02-19T12:16:28;113628.41;;;9.69;100.00
64298;BME280;50639;53.270;7.956;2023-02-19T12:19:16;114586.69;;;10.03;100.00
64298;BME280;50639;53.270;7.956;2023-02-19T12:27:17;113447.28;;;9.75;100.00
64298;BME280;50639;53.270;7.956;2023-02-19T12:30:02;113745.06;;;9.97;100.00
64298;BME280;50639;53.270;7.956;2023-02-19T12:35:37;112698.59;;;9.82;100.00
64298;BME280;50639;53.270;7.956;2023-02-19T12:40:46;112103.97;;;9.78;100.00
64298;BME280;50639;53.270;7.956;2023-02-19T12:43:20;112209.34;;;9.87;100.00
64298;BME280;50639;53.270;7.956;2023-02-19T12:45:51;111948.72;;;9.82;100.00
64298;BME280;50639;53.270;7.956;2023-02-19T12:51:26;111186.00;;;9.56;100.00
64298;BME280;50639;53.270;7.956;2023-02-19T12:54:11;110234.72;;;9.21;100.00
64298;BME280;50639;53.270;7.956;2023-02-19T12:57:05;109867.16;;;9.02;100.00
64298;BME280;50639;53.270;7.956;2023-02-19T12:59:39;110227.47;;;9.08;100.00
64298;BME280;50639;53.270;7.956;2023-02-19T13:02:27;111101.19;;;9.33;100.00
64298;BME280;50639;53.270;7.956;2023-02-19T13:05:02;110304.56;;;9.06;100.00
64298;BME280;50639;53.270;7.956;2023-02-19T13:07:31;110223.81;;;8.98;100.00
64298;BME280;50639;53.270;7.956;2023-02-19T13:12:41;110725.13;;;9.14;100.00
64298;BME280;50639;53.270;7.956;2023-02-19T13:17:49;111892.81;;;9.45;100.00
64298;BME280;50639;53.270;7.956;2023-02-19T13:20:25;112197.56;;;9.59;100.00
64298;BME280;50639;53.270;7.956;2023-02-19T13:23:18;111356.91;;;9.35;100.00
64298;BME280;50639;53.270;7.956;2023-02-19T13:36:25;110905.47;;;9.23;100.00
64298;BME280;50639;53.270;7.956;2023-02-19T13:38:52;111155.91;;;9.32;100.00
64298;BME280;50639;53.270;7.956;2023-02-19T13:41:41;110947.66;;;9.24;100.00
64298;BME280;50639;53.270;7.956;2023-02-19T13:44:22;110878.56;;;9.21;100.00
64298;BME280;50639;53.270;7.956;2023-02-19T13:46:49;111112.75;;;9.29;100.00
64298;BME280;50639;53.270;7.956;2023-02-19T13:51:54;110946.72;;;9.22;100.00
64298;BME280;50639;53.270;7.956;2023-02-19T13:54:31;110892.00;;;9.20;100.00
64298;BME280;50639;53.270;7.956;2023-02-19T13:59:51;111565.25;;;9.43;100.00
64298;BME280;50639;53.270;7.956;2023-02-19T14:25:32;112012.75;;;9.62;100.00
64298;BME280;50639;53.270;7.956;2023-02-19T14:33:37;111940.03;;;9.62;100.00
64298;BME280;50639;53.270;7.956;2023-02-19T14:38:49;111297.03;;;9.46;100.00
64298;BME280;50639;53.270;7.956;2023-02-19T14:41:16;111589.88;;;9.59;100.00
64298;BME280;50639;53.270;7.956;2023-02-19T14:43:44;111215.47;;;9.49;100.00
64298;BME280;50639;53.270;7.956;2023-02-19T14:46:31;111169.66;;;9.47;100.00
64298;BME280;50639;53.270;7.956;2023-02-19T14:49:12;111526.19;;;9.60;100.00
64298;BME280;50639;53.270;7.956;2023-02-19T14:51:42;110341.44;;;9.23;100.00
64298;BME280;50639;53.270;7.956;2023-02-19T14:54:19;109619.78;;;9.00;100.00
64298;BME280;50639;53.270;7.956;2023-02-19T14:56:49;109180.84;;;8.85;100.00
64298;BME280;50639;53.270;7.956;2023-02-19T15:01:44;109775.72;;;8.99;100.00
64298;BME280;50639;53.270;7.956;2023-02-19T15:04:28;109892.25;;;9.02;100.00
64298;BME280;50639;53.270;7.956;2023-02-19T15:06:56;109540.97;;;8.86;100.00
64298;BME280;50639;53.270;7.956;2023-02-19T15:09:29;109515.91;;;8.83;100.00
64298;BME280;50639;53.270;7.956;2023-02-19T15:11:55;109572.34;;;8.83;100.00
64298;BME280;50639;53.270;7.956;2023-02-19T15:14:23;109326.06;;;8.71;100.00
64298;BME280;50639;53.270;7.956;2023-02-19T15:16:57;109277.75;;;8.65;100.00
64298;BME280;50639;53.270;7.956;2023-02-19T15:19:24;109789.16;;;8.79;100.00
64298;BME280;50639;53.270;7.956;2023-02-19T15:21:50;110088.44;;;8.87;100.00
64298;BME280;50639;53.270;7.956;2023-02-19T15:24:17;109912.78;;;8.81;100.00
64298;BME280;50639;53.270;7.956;2023-02-19T15:26:47;109732.72;;;8.72;100.00
64298;BME280;50639;53.270;7.956;2023-02-19T15:29:17;109584.03;;;8.64;100.00
64298;BME280;50639;53.270;7.956;2023-02-19T15:34:21;109829.44;;;8.69;100.00
64298;BME280;50639;53.270;7.956;2023-02-19T15:36:49;109564.34;;;8.57;100.00
64298;BME280;50639;53.270;7.956;2023-02-19T15:39:22;109747.03;;;8.62;100.00
64298;BME280;50639;53.270;7.956;2023-02-19T15:41:57;110033.72;;;8.72;100.00
64298;BME280;50639;53.270;7.956;2023-02-19T15:44:35;110118.81;;;8.74;100.00
64298;BME280;50639;53.270;7.956;2023-02-19T15:50:13;110057.84;;;8.69;100.00
64298;BME280;50639;53.270;7.956;2023-02-19T15:52:56;109937.81;;;8.63;100.00
64298;BME280;50639;53.270;7.956;2023-02-19T15:55:37;110183.31;;;8.71;100.00
64298;BME280;50639;53.270;7.956;2023-02-19T15:58:22;110082.94;;;8.68;100.00
64298;BME280;50639;53.270;7.956;2023-02-19T16:00:57;110039.91;;;8.66;100.00
64298;BME280;50639;53.270;7.956;2023-02-19T16:03:26;110090.09;;;8.66;100.00
64298;BME280;50639;53.270;7.956;2023-02-19T16:06:05;109832.09;;;8.55;100.00
64298;BME280;50639;53.270;7.956;2023-02-19T16:08:36;109566.13;;;8.45;100.00
64298;BME280;50639;53.270;7.956;2023-02-19T16:11:05;109321.75;;;8.35;100.00
64298;BME280;50639;53.270;7.956;2023-02-19T16:13:33;109148.19;;;8.27;100.00
64298;BME280;50639;53.270;7.956;2023-02-19T16:18:34;108827.03;;;8.12;100.00
64298;BME280;50639;53.270;7.956;2023-02-19T16:21:05;108624.06;;;8.04;100.00
64298;BME280;50639;53.270;7.956;2023-02-19T16:23:32;108560.66;;;7.98;100.00
64298;BME280;50639;53.270;7.956;2023-02-19T16:26:00;108478.47;;;7.93;100.00
64298;BME280;50639;53.270;7.956;2023-02-19T16:28:27;108341.75;;;7.87;100.00
64298;BME280;50639;53.270;7.956;2023-02-19T16:31:01;108359.66;;;7.86;100.00
64298;BME280;50639;53.270;7.956;2023-02-19T16:33:42;108189.03;;;7.78;100.00
64298;BME280;50639;53.270;7.956;2023-02-19T16:36:37;107853.28;;;7.62;100.00
64298;BME280;50639;53.270;7.956;2023-02-19T16:44:37;107910.59;;;7.58;100.00
64298;BME280;50639;53.270;7.956;2023-02-19T16:47:14;107626.75;;;7.46;100.00
64298;BME280;50639;53.270;7.956;2023-02-19T16:49:41;107560.84;;;7.39;100.00
64298;BME280;50639;53.270;7.956;2023-02-19T16:52:08;107492.13;;;7.36;100.00